FJL821 OPST-OPKC
Flight info
| Callsign | FJL821 |
|---|---|
| Flight time | 1h 28m |
| Altitude | 38000 |
| Route | SALNA1A SALNA J220 LA G201 MOLTA G214 RK J112 NH NH1C |
| Aircraft | A320/M-SDE3FGHIRWY/LB1 |
Departure
| Time | 2026-05-07 05:49 |
|---|---|
| Airport | Sialkot International Airport (OPST) |
Arrival
| Time | 2026-05-07 07:17 |
|---|---|
| Airport | Jinnah International Airport (OPKC) |
| Time | Latitude | Longitude | Altitude | Speed | Heading |
|---|---|---|---|---|---|
| 2026-05-07 05:30 | 32.53371 | 74.36730 | 797 ft | 0 kts | 133° |
| 2026-05-07 05:42 | 32.53373 | 74.36728 | 769 ft | 2 kts | 133° |
| 2026-05-07 05:42 | 32.53391 | 74.36706 | 796 ft | 4 kts | 137° |
| 2026-05-07 05:42 | 32.53412 | 74.36686 | 796 ft | 4 kts | 148° |
| 2026-05-07 05:42 | 32.53435 | 74.36674 | 796 ft | 4 kts | 185° |
| 2026-05-07 05:43 | 32.53447 | 74.36679 | 796 ft | 0 kts | 223° |
| 2026-05-07 05:44 | 32.53445 | 74.36675 | 796 ft | 2 kts | 223° |
| 2026-05-07 05:44 | 32.53420 | 74.36649 | 796 ft | 7 kts | 223° |
| 2026-05-07 05:45 | 32.53385 | 74.36584 | 796 ft | 11 kts | 266° |
| 2026-05-07 05:45 | 32.53438 | 74.36490 | 796 ft | 16 kts | 309° |
| 2026-05-07 05:45 | 32.53520 | 74.36381 | 797 ft | 19 kts | 293° |
| 2026-05-07 05:45 | 32.53453 | 74.36247 | 796 ft | 22 kts | 222° |
| 2026-05-07 05:46 | 32.53329 | 74.36110 | 796 ft | 26 kts | 223° |
| 2026-05-07 05:46 | 32.53191 | 74.35958 | 795 ft | 27 kts | 222° |
| 2026-05-07 05:46 | 32.53050 | 74.35809 | 797 ft | 27 kts | 221° |
| 2026-05-07 05:46 | 32.52912 | 74.35655 | 798 ft | 27 kts | 230° |
| 2026-05-07 05:47 | 32.52773 | 74.35498 | 797 ft | 28 kts | 222° |
| 2026-05-07 05:47 | 32.52630 | 74.35339 | 796 ft | 29 kts | 225° |
| 2026-05-07 05:47 | 32.52493 | 74.35192 | 795 ft | 23 kts | 218° |
| 2026-05-07 05:47 | 32.52382 | 74.35124 | 795 ft | 13 kts | 261° |
| 2026-05-07 05:48 | 32.52421 | 74.35106 | 795 ft | 7 kts | 32° |
| 2026-05-07 05:48 | 32.52563 | 74.35268 | 795 ft | 66 kts | 43° |
| 2026-05-07 05:48 | 32.53090 | 74.35851 | 797 ft | 139 kts | 44° |
| 2026-05-07 05:48 | 32.53938 | 74.36792 | 910 ft | 184 kts | 43° |
| 2026-05-07 05:49 | 32.54837 | 74.37790 | 1794 ft | 179 kts | 45° |
| 2026-05-07 05:49 | 32.55746 | 74.38875 | 2478 ft | 191 kts | 57° |
| 2026-05-07 05:49 | 32.56075 | 74.40449 | 3008 ft | 211 kts | 103° |
| 2026-05-07 05:49 | 32.55349 | 74.41984 | 3601 ft | 235 kts | 136° |
| 2026-05-07 05:50 | 32.53795 | 74.43023 | 3907 ft | 266 kts | 166° |
| 2026-05-07 05:50 | 32.52055 | 74.43235 | 5497 ft | 247 kts | 186° |
| 2026-05-07 05:50 | 32.50469 | 74.42625 | 6827 ft | 240 kts | 217° |
| 2026-05-07 05:50 | 32.49352 | 74.41180 | 7897 ft | 240 kts | 237° |
| 2026-05-07 05:51 | 32.48403 | 74.39538 | 8942 ft | 243 kts | 237° |
| 2026-05-07 05:51 | 32.47451 | 74.37857 | 9923 ft | 247 kts | 237° |
| 2026-05-07 05:51 | 32.46484 | 74.36141 | 10804 ft | 252 kts | 237° |
| 2026-05-07 05:51 | 32.45503 | 74.34397 | 11682 ft | 256 kts | 238° |
| 2026-05-07 05:52 | 32.44510 | 74.32630 | 12564 ft | 260 kts | 237° |
| 2026-05-07 05:52 | 32.43509 | 74.30845 | 13422 ft | 264 kts | 239° |
| 2026-05-07 05:52 | 32.42483 | 74.29014 | 14227 ft | 267 kts | 240° |
| 2026-05-07 05:52 | 32.41438 | 74.27210 | 14944 ft | 274 kts | 235° |
| 2026-05-07 05:53 | 32.39993 | 74.25574 | 15218 ft | 302 kts | 212° |
| 2026-05-07 05:53 | 32.37922 | 74.24809 | 15496 ft | 328 kts | 182° |
| 2026-05-07 05:53 | 32.35621 | 74.25341 | 15771 ft | 351 kts | 153° |
| 2026-05-07 05:53 | 32.33647 | 74.27144 | 15988 ft | 371 kts | 127° |
| 2026-05-07 05:54 | 32.32351 | 74.29846 | 16304 ft | 384 kts | 109° |
| 2026-05-07 05:54 | 32.31223 | 74.32753 | 16911 ft | 394 kts | 122° |
| 2026-05-07 05:54 | 32.29355 | 74.35163 | 17591 ft | 403 kts | 141° |
| 2026-05-07 05:54 | 32.26890 | 74.36651 | 18248 ft | 408 kts | 165° |
| 2026-05-07 05:55 | 32.24052 | 74.36923 | 18835 ft | 411 kts | 185° |
| 2026-05-07 05:55 | 32.21196 | 74.36617 | 19444 ft | 414 kts | 186° |
| 2026-05-07 05:55 | 32.18307 | 74.36384 | 20044 ft | 417 kts | 183° |
| 2026-05-07 05:55 | 32.15387 | 74.36313 | 20591 ft | 421 kts | 180° |
| 2026-05-07 05:56 | 32.12442 | 74.36395 | 21123 ft | 425 kts | 178° |
| 2026-05-07 05:56 | 32.09468 | 74.36578 | 21640 ft | 428 kts | 177° |
| 2026-05-07 05:56 | 32.06475 | 74.36807 | 22132 ft | 431 kts | 176° |
| 2026-05-07 05:56 | 32.03473 | 74.37039 | 22599 ft | 434 kts | 176° |
| 2026-05-07 05:57 | 32.00479 | 74.37249 | 23056 ft | 437 kts | 177° |
| 2026-05-07 05:57 | 31.97434 | 74.37437 | 23486 ft | 439 kts | 178° |
| 2026-05-07 05:57 | 31.94351 | 74.37607 | 23849 ft | 442 kts | 178° |
| 2026-05-07 05:57 | 31.91307 | 74.37769 | 24192 ft | 444 kts | 178° |
| 2026-05-07 05:58 | 31.88209 | 74.37937 | 24511 ft | 447 kts | 178° |
| 2026-05-07 05:58 | 31.85093 | 74.38108 | 24826 ft | 449 kts | 178° |
| 2026-05-07 05:58 | 31.81959 | 74.38281 | 25142 ft | 452 kts | 178° |
| 2026-05-07 05:58 | 31.78803 | 74.38459 | 25445 ft | 454 kts | 178° |
| 2026-05-07 05:59 | 31.75628 | 74.38639 | 25752 ft | 456 kts | 178° |
| 2026-05-07 05:59 | 31.72447 | 74.38823 | 26059 ft | 459 kts | 178° |
| 2026-05-07 05:59 | 31.69246 | 74.39010 | 26354 ft | 461 kts | 178° |
| 2026-05-07 05:59 | 31.66031 | 74.39201 | 26646 ft | 464 kts | 178° |
| 2026-05-07 06:00 | 31.62797 | 74.39393 | 26895 ft | 467 kts | 179° |
| 2026-05-07 06:00 | 31.59550 | 74.39512 | 27140 ft | 470 kts | 184° |
| 2026-05-07 06:00 | 31.56358 | 74.39075 | 27407 ft | 469 kts | 195° |
| 2026-05-07 06:00 | 31.53256 | 74.37970 | 27684 ft | 467 kts | 206° |
| 2026-05-07 06:01 | 31.50394 | 74.36262 | 27963 ft | 464 kts | 216° |
| 2026-05-07 06:01 | 31.47831 | 74.34016 | 28168 ft | 462 kts | 227° |
| 2026-05-07 06:01 | 31.45633 | 74.31299 | 28388 ft | 459 kts | 235° |
| 2026-05-07 06:01 | 31.43568 | 74.28432 | 28649 ft | 461 kts | 235° |
| 2026-05-07 06:02 | 31.41487 | 74.25555 | 28912 ft | 463 kts | 235° |
| 2026-05-07 06:02 | 31.39394 | 74.22665 | 29171 ft | 465 kts | 235° |
| 2026-05-07 06:02 | 31.37325 | 74.19811 | 29419 ft | 467 kts | 235° |
| 2026-05-07 06:02 | 31.35212 | 74.16905 | 29663 ft | 469 kts | 235° |
| 2026-05-07 06:03 | 31.33088 | 74.13989 | 29888 ft | 471 kts | 235° |
| 2026-05-07 06:03 | 31.30955 | 74.11056 | 30098 ft | 472 kts | 235° |
| 2026-05-07 06:03 | 31.28821 | 74.08116 | 30341 ft | 473 kts | 235° |
| 2026-05-07 06:03 | 31.26717 | 74.05221 | 30648 ft | 471 kts | 235° |
| 2026-05-07 06:04 | 31.24593 | 74.02299 | 30980 ft | 470 kts | 235° |
| 2026-05-07 06:04 | 31.22476 | 73.99386 | 31297 ft | 468 kts | 235° |
| 2026-05-07 06:04 | 31.20372 | 73.96494 | 31610 ft | 467 kts | 235° |
| 2026-05-07 06:04 | 31.18273 | 73.93605 | 31940 ft | 465 kts | 235° |
| 2026-05-07 06:05 | 31.16180 | 73.90723 | 32261 ft | 463 kts | 235° |
| 2026-05-07 06:05 | 31.14095 | 73.87856 | 32581 ft | 462 kts | 235° |
| 2026-05-07 06:05 | 31.12015 | 73.84996 | 32904 ft | 461 kts | 235° |
| 2026-05-07 06:05 | 31.09968 | 73.82186 | 33229 ft | 459 kts | 236° |
| 2026-05-07 06:06 | 31.07903 | 73.79353 | 33548 ft | 458 kts | 236° |
| 2026-05-07 06:06 | 31.05829 | 73.76514 | 33790 ft | 458 kts | 236° |
| 2026-05-07 06:06 | 31.03754 | 73.73679 | 33827 ft | 457 kts | 236° |
| 2026-05-07 06:07 | 30.99660 | 73.68089 | 33825 ft | 455 kts | 236° |
| 2026-05-07 06:07 | 30.95549 | 73.62485 | 33824 ft | 453 kts | 236° |
| 2026-05-07 06:08 | 30.91367 | 73.56977 | 33821 ft | 454 kts | 234° |
| 2026-05-07 06:08 | 30.87011 | 73.51611 | 33820 ft | 462 kts | 233° |
| 2026-05-07 06:09 | 30.82543 | 73.46170 | 33816 ft | 466 kts | 233° |
| 2026-05-07 06:09 | 30.78103 | 73.40709 | 33817 ft | 466 kts | 233° |
| 2026-05-07 06:10 | 30.73653 | 73.35200 | 33807 ft | 466 kts | 233° |
| 2026-05-07 06:10 | 30.69207 | 73.29694 | 33779 ft | 467 kts | 233° |
| 2026-05-07 06:11 | 30.64775 | 73.24230 | 33785 ft | 467 kts | 233° |
| 2026-05-07 06:11 | 30.60302 | 73.18730 | 33789 ft | 467 kts | 233° |
| 2026-05-07 06:12 | 30.55842 | 73.13244 | 33791 ft | 467 kts | 233° |
| 2026-05-07 06:12 | 30.51366 | 73.07751 | 33792 ft | 467 kts | 233° |
| 2026-05-07 06:13 | 30.46895 | 73.02269 | 33793 ft | 467 kts | 233° |
| 2026-05-07 06:13 | 30.42422 | 72.96778 | 33796 ft | 468 kts | 233° |
| 2026-05-07 06:14 | 30.37964 | 72.91327 | 33764 ft | 468 kts | 233° |
| 2026-05-07 06:14 | 30.33469 | 72.85839 | 33781 ft | 468 kts | 233° |
| 2026-05-07 06:15 | 30.29009 | 72.80410 | 33794 ft | 468 kts | 233° |
| 2026-05-07 06:15 | 30.24505 | 72.74927 | 33795 ft | 468 kts | 233° |
| 2026-05-07 06:16 | 30.20021 | 72.69473 | 33794 ft | 468 kts | 233° |
| 2026-05-07 06:16 | 30.15526 | 72.64022 | 33781 ft | 468 kts | 233° |
| 2026-05-07 06:17 | 30.11063 | 72.58609 | 33751 ft | 467 kts | 233° |
| 2026-05-07 06:17 | 30.06570 | 72.53159 | 33759 ft | 467 kts | 233° |
| 2026-05-07 06:18 | 30.02079 | 72.47732 | 33766 ft | 467 kts | 233° |
| 2026-05-07 06:18 | 29.97586 | 72.42305 | 33763 ft | 467 kts | 233° |
| 2026-05-07 06:19 | 29.93094 | 72.36899 | 33762 ft | 467 kts | 233° |
| 2026-05-07 06:19 | 29.88619 | 72.31514 | 33764 ft | 467 kts | 233° |
| 2026-05-07 06:20 | 29.84115 | 72.26102 | 33765 ft | 467 kts | 233° |
| 2026-05-07 06:20 | 29.80379 | 72.21611 | 33743 ft | 467 kts | 233° |
| 2026-05-07 06:21 | 29.75875 | 72.16211 | 33755 ft | 467 kts | 233° |
| 2026-05-07 06:21 | 29.71363 | 72.10820 | 33743 ft | 467 kts | 233° |
| 2026-05-07 06:22 | 29.66869 | 72.05446 | 33755 ft | 467 kts | 233° |
| 2026-05-07 06:22 | 29.60095 | 71.97350 | 33757 ft | 468 kts | 233° |
| 2026-05-07 06:23 | 29.55569 | 71.91957 | 33756 ft | 468 kts | 233° |
| 2026-05-07 06:23 | 29.51064 | 71.86608 | 33736 ft | 469 kts | 233° |
| 2026-05-07 06:24 | 29.46527 | 71.81210 | 33750 ft | 469 kts | 233° |
| 2026-05-07 06:24 | 29.41977 | 71.75808 | 33766 ft | 469 kts | 233° |
| 2026-05-07 06:25 | 29.37452 | 71.70447 | 33742 ft | 470 kts | 233° |
| 2026-05-07 06:25 | 29.32900 | 71.65063 | 33747 ft | 470 kts | 233° |
| 2026-05-07 06:26 | 29.28370 | 71.59707 | 33747 ft | 470 kts | 233° |
| 2026-05-07 06:26 | 29.23816 | 71.54329 | 33726 ft | 470 kts | 234° |
| 2026-05-07 06:27 | 29.19248 | 71.48953 | 33726 ft | 470 kts | 234° |
| 2026-05-07 06:27 | 29.14686 | 71.43582 | 33730 ft | 470 kts | 234° |
| 2026-05-07 06:28 | 29.10118 | 71.38209 | 33736 ft | 470 kts | 234° |
| 2026-05-07 06:28 | 29.05578 | 71.32885 | 33714 ft | 470 kts | 234° |
| 2026-05-07 06:29 | 29.01002 | 71.27520 | 33719 ft | 471 kts | 234° |
| 2026-05-07 06:29 | 28.96413 | 71.22148 | 33721 ft | 471 kts | 234° |
| 2026-05-07 06:30 | 28.91874 | 71.16834 | 33726 ft | 472 kts | 234° |
| 2026-05-07 06:30 | 28.87285 | 71.11476 | 33733 ft | 472 kts | 234° |
| 2026-05-07 06:31 | 28.82690 | 71.06120 | 33734 ft | 472 kts | 234° |
| 2026-05-07 06:31 | 28.78088 | 71.00766 | 33732 ft | 472 kts | 234° |
| 2026-05-07 06:32 | 28.73515 | 70.95455 | 33726 ft | 472 kts | 234° |
| 2026-05-07 06:32 | 28.68902 | 70.90107 | 33714 ft | 472 kts | 234° |
| 2026-05-07 06:33 | 28.64291 | 70.84752 | 33699 ft | 473 kts | 235° |
| 2026-05-07 06:33 | 28.59674 | 70.79406 | 33715 ft | 473 kts | 235° |
| 2026-05-07 06:34 | 28.55086 | 70.74098 | 33727 ft | 472 kts | 235° |
| 2026-05-07 06:34 | 28.50475 | 70.68762 | 33730 ft | 472 kts | 235° |
| 2026-05-07 06:35 | 28.45866 | 70.63433 | 33735 ft | 472 kts | 234° |
| 2026-05-07 06:35 | 28.41241 | 70.58105 | 33737 ft | 472 kts | 234° |
| 2026-05-07 06:36 | 28.36621 | 70.52788 | 33713 ft | 472 kts | 235° |
| 2026-05-07 06:36 | 28.32029 | 70.47520 | 33726 ft | 472 kts | 235° |
| 2026-05-07 06:37 | 28.27291 | 70.42319 | 33728 ft | 475 kts | 232° |
| 2026-05-07 06:37 | 28.22310 | 70.37330 | 33732 ft | 477 kts | 231° |
| 2026-05-07 06:38 | 28.17300 | 70.32386 | 33735 ft | 477 kts | 231° |
| 2026-05-07 06:38 | 28.12352 | 70.27394 | 33734 ft | 476 kts | 232° |
| 2026-05-07 06:39 | 28.07432 | 70.22376 | 33733 ft | 475 kts | 232° |
| 2026-05-07 06:39 | 28.02551 | 70.17415 | 33697 ft | 475 kts | 231° |
| 2026-05-07 06:40 | 27.97603 | 70.12418 | 33716 ft | 475 kts | 231° |
| 2026-05-07 06:40 | 27.92673 | 70.07444 | 33717 ft | 475 kts | 231° |
| 2026-05-07 06:41 | 27.87734 | 70.02472 | 33732 ft | 476 kts | 231° |
| 2026-05-07 06:41 | 27.82793 | 69.97494 | 33731 ft | 475 kts | 231° |
| 2026-05-07 06:42 | 27.77869 | 69.92538 | 33733 ft | 475 kts | 231° |
| 2026-05-07 06:42 | 27.72941 | 69.87593 | 33716 ft | 475 kts | 231° |
| 2026-05-07 06:43 | 27.68015 | 69.82651 | 33701 ft | 475 kts | 231° |
| 2026-05-07 06:43 | 27.63076 | 69.77697 | 33708 ft | 475 kts | 231° |
| 2026-05-07 06:44 | 27.58133 | 69.72741 | 33714 ft | 475 kts | 231° |
| 2026-05-07 06:44 | 27.53196 | 69.67805 | 33717 ft | 474 kts | 231° |
| 2026-05-07 06:45 | 27.48255 | 69.62877 | 33720 ft | 474 kts | 231° |
| 2026-05-07 06:45 | 27.43308 | 69.57958 | 33721 ft | 474 kts | 231° |
| 2026-05-07 06:46 | 27.38385 | 69.53060 | 33706 ft | 474 kts | 231° |
| 2026-05-07 06:46 | 27.33442 | 69.48139 | 33704 ft | 473 kts | 230° |
| 2026-05-07 06:47 | 27.28530 | 69.43251 | 33725 ft | 472 kts | 230° |
| 2026-05-07 06:47 | 27.23588 | 69.38346 | 33726 ft | 472 kts | 230° |
| 2026-05-07 06:48 | 27.18692 | 69.33494 | 33728 ft | 472 kts | 230° |
| 2026-05-07 06:48 | 27.13763 | 69.28611 | 33726 ft | 471 kts | 230° |
| 2026-05-07 06:49 | 27.08831 | 69.23737 | 33713 ft | 471 kts | 230° |
| 2026-05-07 06:49 | 27.03910 | 69.18884 | 33693 ft | 471 kts | 230° |
| 2026-05-07 06:50 | 26.99008 | 69.14048 | 33707 ft | 471 kts | 230° |
| 2026-05-07 06:50 | 26.94077 | 69.09191 | 33713 ft | 471 kts | 230° |
| 2026-05-07 06:51 | 26.89154 | 69.04347 | 33719 ft | 471 kts | 229° |
| 2026-05-07 06:51 | 26.84217 | 68.99501 | 33718 ft | 471 kts | 229° |
| 2026-05-07 06:52 | 26.79316 | 68.94692 | 33721 ft | 471 kts | 229° |
| 2026-05-07 06:52 | 26.74384 | 68.89857 | 33723 ft | 471 kts | 229° |
| 2026-05-07 06:53 | 26.69466 | 68.85031 | 33718 ft | 469 kts | 229° |
| 2026-05-07 06:53 | 26.64548 | 68.80225 | 33728 ft | 470 kts | 229° |
| 2026-05-07 06:54 | 26.59610 | 68.75415 | 33724 ft | 470 kts | 229° |
| 2026-05-07 06:54 | 26.54686 | 68.70610 | 33725 ft | 470 kts | 229° |
| 2026-05-07 06:55 | 26.49793 | 68.65837 | 33731 ft | 470 kts | 229° |
| 2026-05-07 06:55 | 26.44857 | 68.61030 | 33733 ft | 470 kts | 229° |
| 2026-05-07 06:56 | 26.39934 | 68.56240 | 33713 ft | 470 kts | 229° |
| 2026-05-07 06:56 | 26.34991 | 68.51521 | 33709 ft | 472 kts | 226° |
| 2026-05-07 06:57 | 26.29730 | 68.47077 | 33724 ft | 475 kts | 223° |
| 2026-05-07 06:57 | 26.24340 | 68.42787 | 33736 ft | 475 kts | 223° |
| 2026-05-07 06:58 | 26.19062 | 68.38503 | 33741 ft | 473 kts | 224° |
| 2026-05-07 06:58 | 26.13781 | 68.34108 | 33739 ft | 472 kts | 224° |
| 2026-05-07 06:59 | 26.08525 | 68.29712 | 33739 ft | 473 kts | 224° |
| 2026-05-07 06:59 | 26.03255 | 68.25337 | 33757 ft | 470 kts | 224° |
| 2026-05-07 07:00 | 26.00623 | 68.23167 | 33494 ft | 469 kts | 224° |
| 2026-05-07 07:00 | 25.98035 | 68.21032 | 32595 ft | 471 kts | 224° |
| 2026-05-07 07:00 | 25.95381 | 68.18839 | 31610 ft | 477 kts | 223° |
| 2026-05-07 07:00 | 25.92704 | 68.16629 | 30630 ft | 482 kts | 223° |
| 2026-05-07 07:01 | 25.89995 | 68.14393 | 29605 ft | 488 kts | 223° |
| 2026-05-07 07:01 | 25.88181 | 68.12897 | 28833 ft | 491 kts | 223° |
| 2026-05-07 07:01 | 25.84485 | 68.09855 | 27404 ft | 495 kts | 222° |
| 2026-05-07 07:01 | 25.82647 | 68.08345 | 26727 ft | 497 kts | 221° |
| 2026-05-07 07:02 | 25.79876 | 68.06070 | 25714 ft | 498 kts | 221° |
| 2026-05-07 07:02 | 25.77082 | 68.03779 | 24692 ft | 499 kts | 220° |
| 2026-05-07 07:02 | 25.74279 | 68.01483 | 23792 ft | 498 kts | 220° |
| 2026-05-07 07:02 | 25.71508 | 67.99213 | 23053 ft | 491 kts | 220° |
| 2026-05-07 07:03 | 25.68772 | 67.96970 | 22236 ft | 485 kts | 219° |
| 2026-05-07 07:03 | 25.66072 | 67.94751 | 21466 ft | 479 kts | 219° |
| 2026-05-07 07:03 | 25.63435 | 67.92583 | 20747 ft | 474 kts | 219° |
| 2026-05-07 07:03 | 25.60803 | 67.90422 | 20050 ft | 469 kts | 218° |
| 2026-05-07 07:04 | 25.58194 | 67.88284 | 19378 ft | 463 kts | 218° |
| 2026-05-07 07:04 | 25.55601 | 67.86164 | 18719 ft | 459 kts | 218° |
| 2026-05-07 07:04 | 25.53048 | 67.84076 | 18079 ft | 454 kts | 217° |
| 2026-05-07 07:04 | 25.50515 | 67.82004 | 17342 ft | 451 kts | 218° |
| 2026-05-07 07:05 | 25.48008 | 67.79953 | 16648 ft | 446 kts | 217° |
| 2026-05-07 07:05 | 25.45519 | 67.77918 | 15977 ft | 441 kts | 217° |
| 2026-05-07 07:05 | 25.43111 | 67.75951 | 14896 ft | 431 kts | 217° |
| 2026-05-07 07:05 | 25.40714 | 67.73992 | 14008 ft | 419 kts | 218° |
| 2026-05-07 07:06 | 25.38422 | 67.72124 | 13845 ft | 389 kts | 218° |
| 2026-05-07 07:06 | 25.36322 | 67.70417 | 13729 ft | 362 kts | 217° |
| 2026-05-07 07:06 | 25.34353 | 67.68816 | 13619 ft | 339 kts | 218° |
| 2026-05-07 07:06 | 25.32517 | 67.67322 | 13265 ft | 327 kts | 218° |
| 2026-05-07 07:07 | 25.30709 | 67.65848 | 12729 ft | 320 kts | 219° |
| 2026-05-07 07:07 | 25.28920 | 67.64391 | 12120 ft | 318 kts | 219° |
| 2026-05-07 07:07 | 25.27148 | 67.62948 | 11557 ft | 314 kts | 219° |
| 2026-05-07 07:07 | 25.25407 | 67.61529 | 11025 ft | 309 kts | 218° |
| 2026-05-07 07:08 | 25.23682 | 67.60124 | 10475 ft | 305 kts | 219° |
| 2026-05-07 07:08 | 25.21983 | 67.58744 | 9930 ft | 301 kts | 218° |
| 2026-05-07 07:08 | 25.20301 | 67.57379 | 9374 ft | 298 kts | 218° |
| 2026-05-07 07:08 | 25.18632 | 67.56023 | 8937 ft | 297 kts | 218° |
| 2026-05-07 07:09 | 25.16976 | 67.54679 | 8573 ft | 293 kts | 218° |
| 2026-05-07 07:09 | 25.15354 | 67.53365 | 7976 ft | 290 kts | 220° |
| 2026-05-07 07:09 | 25.13732 | 67.52049 | 7382 ft | 287 kts | 220° |
| 2026-05-07 07:09 | 25.12126 | 67.50744 | 6770 ft | 285 kts | 219° |
| 2026-05-07 07:10 | 25.10534 | 67.49450 | 6158 ft | 283 kts | 218° |
| 2026-05-07 07:10 | 25.08958 | 67.48172 | 5576 ft | 280 kts | 218° |
| 2026-05-07 07:10 | 25.07407 | 67.46917 | 4967 ft | 278 kts | 217° |
| 2026-05-07 07:10 | 25.05868 | 67.45673 | 4761 ft | 278 kts | 218° |
| 2026-05-07 07:11 | 25.04313 | 67.44414 | 4653 ft | 270 kts | 218° |
| 2026-05-07 07:11 | 25.02842 | 67.43224 | 4465 ft | 259 kts | 219° |
| 2026-05-07 07:11 | 25.01403 | 67.42060 | 4102 ft | 258 kts | 219° |
| 2026-05-07 07:11 | 24.99964 | 67.40897 | 3765 ft | 250 kts | 219° |
| 2026-05-07 07:12 | 24.98610 | 67.39803 | 3705 ft | 239 kts | 218° |
| 2026-05-07 07:12 | 24.97278 | 67.38717 | 3610 ft | 235 kts | 224° |
| 2026-05-07 07:12 | 24.96244 | 67.37359 | 3439 ft | 232 kts | 246° |
| 2026-05-07 07:12 | 24.95741 | 67.35692 | 3197 ft | 226 kts | 256° |
| 2026-05-07 07:13 | 24.95326 | 67.34021 | 2922 ft | 225 kts | 256° |
| 2026-05-07 07:13 | 24.94919 | 67.32393 | 2637 ft | 222 kts | 257° |
| 2026-05-07 07:13 | 24.94516 | 67.30790 | 2366 ft | 211 kts | 255° |
| 2026-05-07 07:13 | 24.94136 | 67.29283 | 2101 ft | 195 kts | 255° |
| 2026-05-07 07:14 | 24.93795 | 67.27924 | 1886 ft | 174 kts | 253° |
| 2026-05-07 07:14 | 24.93493 | 67.26723 | 1696 ft | 150 kts | 253° |
| 2026-05-07 07:14 | 24.93229 | 67.25676 | 1491 ft | 136 kts | 253° |
| 2026-05-07 07:14 | 24.92973 | 67.24666 | 1319 ft | 136 kts | 253° |
| 2026-05-07 07:15 | 24.92721 | 67.23665 | 1139 ft | 136 kts | 255° |
| 2026-05-07 07:15 | 24.92466 | 67.22655 | 989 ft | 135 kts | 253° |
| 2026-05-07 07:15 | 24.92214 | 67.21657 | 812 ft | 136 kts | 253° |
| 2026-05-07 07:15 | 24.91960 | 67.20649 | 657 ft | 136 kts | 255° |
| 2026-05-07 07:16 | 24.91692 | 67.19628 | 503 ft | 142 kts | 257° |
| 2026-05-07 07:16 | 24.91422 | 67.18601 | 388 ft | 139 kts | 260° |
| 2026-05-07 07:16 | 24.91179 | 67.17591 | 159 ft | 131 kts | 256° |
| 2026-05-07 07:16 | 24.90968 | 67.16704 | 106 ft | 108 kts | 259° |
| 2026-05-07 07:17 | 24.90811 | 67.16088 | 101 ft | 60 kts | 255° |
| 2026-05-07 07:17 | 24.90740 | 67.15829 | 103 ft | 10 kts | 244° |
| 2026-05-07 07:17 | 24.90732 | 67.15812 | 103 ft | 7 kts | 240° |
| 2026-05-07 07:17 | 24.90683 | 67.15755 | 105 ft | 11 kts | 218° |
| 2026-05-07 07:18 | 24.90607 | 67.15718 | 104 ft | 13 kts | 187° |
| 2026-05-07 07:18 | 24.90528 | 67.15721 | 104 ft | 0 kts | 172° |
| 2026-05-07 07:18 | 24.90479 | 67.15730 | 105 ft | 9 kts | 170° |
| 2026-05-07 07:19 | 24.90421 | 67.15744 | 104 ft | 8 kts | 165° |
| 2026-05-07 07:19 | 24.90367 | 67.15764 | 104 ft | 8 kts | 163° |
| 2026-05-07 07:19 | 24.90311 | 67.15781 | 103 ft | 9 kts | 164° |
| 2026-05-07 07:19 | 24.90264 | 67.15814 | 102 ft | 8 kts | 122° |
| 2026-05-07 07:20 | 24.90262 | 67.15864 | 102 ft | 6 kts | 83° |
| 2026-05-07 07:20 | 24.90272 | 67.15901 | 101 ft | 4 kts | 72° |
| 2026-05-07 07:20 | 24.90279 | 67.15926 | 102 ft | 3 kts | 72° |
| 2026-05-07 07:20 | 24.90284 | 67.15942 | 101 ft | 2 kts | 71° |
| 2026-05-07 07:21 | 24.90300 | 67.16000 | 101 ft | 11 kts | 74° |
| 2026-05-07 07:21 | 24.90319 | 67.16076 | 102 ft | 10 kts | 75° |
| 2026-05-07 07:21 | 24.90336 | 67.16142 | 102 ft | 8 kts | 75° |
| 2026-05-07 07:21 | 24.90350 | 67.16200 | 102 ft | 7 kts | 75° |
| 2026-05-07 07:22 | 24.90361 | 67.16247 | 102 ft | 6 kts | 75° |
| 2026-05-07 07:22 | 24.90371 | 67.16284 | 100 ft | 4 kts | 73° |
| 2026-05-07 07:22 | 24.90378 | 67.16310 | 102 ft | 5 kts | 72° |
| 2026-05-07 07:22 | 24.90367 | 67.16344 | 100 ft | 4 kts | 145° |
| 2026-05-07 07:23 | 24.90343 | 67.16357 | 102 ft | 3 kts | 158° |
| 2026-05-07 07:23 | 24.90323 | 67.16365 | 102 ft | 3 kts | 161° |
| 2026-05-07 07:23 | 24.90309 | 67.16370 | 101 ft | 2 kts | 165° |
| 2026-05-07 07:23 | 24.90300 | 67.16372 | 101 ft | 1 kts | 165° |
| 2026-05-07 07:24 | 24.90281 | 67.16378 | 101 ft | 10 kts | 165° |
| 2026-05-07 07:24 | 24.90193 | 67.16404 | 101 ft | 13 kts | 165° |
| 2026-05-07 07:24 | 24.90111 | 67.16430 | 101 ft | 11 kts | 160° |
| 2026-05-07 07:24 | 24.90061 | 67.16467 | 101 ft | 5 kts | 133° |
| 2026-05-07 07:25 | 24.90079 | 67.16517 | 101 ft | 12 kts | 44° |
| 2026-05-07 07:25 | 24.90106 | 67.16547 | 100 ft | 0 kts | 46° |
| 2026-05-07 07:25 | 24.90107 | 67.16548 | 101 ft | 0 kts | 45° |